Time;durP1;ratioP1;P1;durP2;ratioP2;P2;SDS_P1;SDS_P2;PMS_P1;PMS_P2;Temp;Humidity;BMP_temperature;BMP_pressure;BME280_temperature;BME280_humidity;BME280_pressure;Samples;Min_cycle;Max_cycle;Signal;HPM_P1;HPM_P2
2022/05/10 00:00:34;;;;;;;9.27;4.60;;;;;;;11.35;50.29;99310.22;5049727;28;20481;-78
2022/05/10 00:03:04;;;;;;;11.10;4.82;;;;;;;11.33;50.15;99318.75;5049477;28;20098;-79
2022/05/10 00:05:38;;;;;;;12.25;5.28;;;;;;;11.30;50.83;99320.13;5049689;28;20029;-79
2022/05/10 00:08:07;;;;;;;11.00;4.53;;;;;;;11.28;49.93;99311.34;5049925;28;20048;-78
2022/05/10 00:10:34;;;;;;;9.20;5.10;;;;;;;11.23;50.69;99311.34;5048586;28;20520;-80
2022/05/10 00:13:00;;;;;;;6.57;4.10;;;;;;;11.19;50.45;99315.78;5048469;28;20549;-80
2022/05/10 00:15:26;;;;;;;9.45;4.70;;;;;;;11.14;50.44;99311.09;5048007;28;20115;-79
2022/05/10 00:17:51;;;;;;;7.32;4.85;;;;;;;11.09;50.13;99313.06;5049882;28;20481;-80
2022/05/10 00:20:22;;;;;;;11.35;4.93;;;;;;;11.02;51.56;99308.69;5050053;28;20036;-79
2022/05/10 00:22:47;;;;;;;8.27;4.47;;;;;;;10.99;50.32;99306.47;5048092;28;20818;-79
2022/05/10 00:25:17;;;;;;;9.73;4.70;;;;;;;10.95;50.81;99307.34;5048631;28;20025;-80
2022/05/10 00:27:43;;;;;;;8.73;4.65;;;;;;;10.90;50.79;99299.91;5049566;28;20025;-79
2022/05/10 00:30:08;;;;;;;9.18;5.15;;;;;;;10.84;51.29;99307.34;5049733;28;20033;-77
2022/05/10 00:32:36;;;;;;;10.23;5.63;;;;;;;10.79;51.18;99310.09;5049964;28;20040;-80
2022/05/10 00:35:03;;;;;;;10.50;5.78;;;;;;;10.74;51.49;99303.81;5047940;28;20037;-81
2022/05/10 00:37:29;;;;;;;8.35;5.75;;;;;;;10.68;51.25;99303.81;5048819;28;20048;-81
2022/05/10 00:39:55;;;;;;;12.75;6.47;;;;;;;10.60;51.78;99304.34;5047320;28;20028;-81
2022/05/10 00:42:29;;;;;;;10.25;6.32;;;;;;;10.47;52.05;99296.66;5049328;28;20978;-80
2022/05/10 00:45:04;;;;;;;11.02;5.80;;;;;;;10.32;52.23;99291.97;5046154;28;20025;-80
2022/05/10 00:47:45;;;;;;;11.43;5.68;;;;;;;10.16;51.92;99288.41;5048849;28;20775;-80
2022/05/10 00:50:34;;;;;;;9.77;5.35;;;;;;;10.08;51.71;99287.06;5046853;28;20045;-80
2022/05/10 00:53:55;;;;;;;9.80;5.65;;;;;;;9.98;52.26;99293.34;5051219;28;20385;-80
2022/05/10 00:56:39;;;;;;;11.27;6.20;;;;;;;9.89;53.03;99282.06;5047844;28;20122;-80
2022/05/10 00:59:28;;;;;;;9.20;6.20;;;;;;;9.79;52.09;99285.63;5051708;28;20017;-80
2022/05/10 01:02:01;;;;;;;14.37;6.63;;;;;;;9.71;52.75;99274.38;5054615;28;20484;-80
2022/05/10 01:04:35;;;;;;;10.25;5.85;;;;;;;9.65;53.06;99270.78;5054742;28;20798;-80
2022/05/10 01:07:13;;;;;;;11.80;6.20;;;;;;;9.56;53.31;99280.66;5052778;28;20036;-80
2022/05/10 01:09:41;;;;;;;11.75;6.10;;;;;;;9.47;53.63;99275.69;5050947;28;20094;-80
2022/05/10 01:12:20;;;;;;;10.18;5.88;;;;;;;9.44;53.83;99270.75;5051875;28;20032;-80
2022/05/10 01:14:58;;;;;;;13.17;5.93;;;;;;;9.37;53.47;99270.16;5051076;28;20033;-81
2022/05/10 01:17:23;;;;;;;11.32;5.80;;;;;;;9.30;53.74;99264.94;5050090;28;20707;-81
2022/05/10 01:19:49;;;;;;;10.75;5.78;;;;;;;9.25;53.72;99267.66;5052618;28;20100;-82
2022/05/10 01:22:42;;;;;;;12.55;6.45;;;;;;;9.17;53.80;99268.16;5051381;28;20091;-81
2022/05/10 01:25:22;;;;;;;11.20;6.07;;;;;;;9.13;54.29;99276.09;5050596;28;20028;-81
2022/05/10 01:28:25;;;;;;;11.68;6.43;;;;;;;9.06;54.09;99265.38;5050358;28;20029;-81
2022/05/10 01:30:51;;;;;;;9.15;5.95;;;;;;;9.01;54.75;99261.81;5050929;28;20056;-81
2022/05/10 01:33:30;;;;;;;13.93;6.43;;;;;;;8.98;54.60;99256.88;5048450;28;20505;-80
2022/05/10 01:36:04;;;;;;;11.48;6.38;;;;;;;8.94;54.76;99264.78;5052480;28;20086;-80
2022/05/10 01:38:54;;;;;;;12.38;6.65;;;;;;;8.87;54.69;99262.28;5052596;28;20099;-80
2022/05/10 01:41:58;;;;;;;13.82;6.70;;;;;;;8.82;54.55;99259.50;5050484;28;20037;-80
2022/05/10 01:44:45;;;;;;;13.70;6.50;;;;;;;8.75;54.81;99267.97;5050545;28;20496;-80
2022/05/10 01:47:10;;;;;;;10.77;6.15;;;;;;;8.73;55.21;99255.66;5049818;28;20116;-80
2022/05/10 01:49:52;;;;;;;13.02;6.00;;;;;;;8.69;55.20;99252.59;5049520;28;20100;-80
2022/05/10 01:52:39;;;;;;;12.25;6.53;;;;;;;8.66;55.46;99260.53;5047987;28;20035;-80
2022/05/10 01:55:29;;;;;;;9.38;6.40;;;;;;;8.60;55.32;99252.28;5050054;28;20503;-80
2022/05/10 01:57:59;;;;;;;11.48;6.32;;;;;;;8.57;55.70;99260.16;5047583;28;20504;-80
2022/05/10 02:00:27;;;;;;;11.82;6.22;;;;;;;8.52;55.74;99257.44;5050472;28;20029;-79
2022/05/10 02:03:15;;;;;;;15.10;6.65;;;;;;;8.43;55.56;99249.69;5048766;28;20028;-80
2022/05/10 02:06:11;;;;;;;11.38;6.53;;;;;;;8.41;55.92;99248.28;5047722;28;20041;-79
2022/05/10 02:08:44;;;;;;;9.50;6.10;;;;;;;8.39;55.87;99253.19;5049111;28;20179;-79
2022/05/10 02:11:15;;;;;;;11.15;5.97;;;;;;;8.38;56.13;99251.53;5049742;28;20033;-79
2022/05/10 02:13:56;;;;;;;9.75;6.47;;;;;;;8.35;55.83;99253.69;5048208;28;20029;-78
2022/05/10 02:16:35;;;;;;;10.93;6.22;;;;;;;8.32;56.25;99256.16;5048609;28;20036;-81
2022/05/10 02:19:28;;;;;;;12.18;6.22;;;;;;;8.29;55.97;99251.19;5049803;28;20448;-79
2022/05/10 02:22:16;;;;;;;11.45;7.07;;;;;;;8.28;56.28;99242.19;5050302;28;20033;-79
2022/05/10 02:24:50;;;;;;;10.30;6.55;;;;;;;8.24;56.11;99245.69;5047911;28;20502;-76
2022/05/10 02:27:20;;;;;;;11.95;6.72;;;;;;;8.19;56.40;99241.84;5049882;28;20021;-77
2022/05/10 02:29:46;;;;;;;12.25;7.03;;;;;;;8.16;56.50;99244.28;5051814;28;20515;-76
2022/05/10 02:35:08;;;;;;;11.43;6.72;;;;;;;8.10;56.68;99240.69;5051646;28;20064;-76
2022/05/10 02:37:33;;;;;;;17.15;7.55;;;;;;;8.10;57.18;99235.22;5049974;28;20044;-76
2022/05/10 02:40:00;;;;;;;15.57;7.25;;;;;;;8.07;56.66;99243.09;5050386;28;20126;-75
2022/05/10 02:42:26;;;;;;;11.85;6.60;;;;;;;8.03;56.69;99240.06;5049081;28;20088;-75
2022/05/10 02:44:54;;;;;;;14.67;7.03;;;;;;;8.03;57.04;99245.53;5004345;28;1225721;-75
2022/05/10 02:47:36;;;;;;;13.93;6.90;;;;;;;8.02;56.96;99241.16;5047178;28;20024;-75
2022/05/10 02:50:03;;;;;;;17.13;7.60;;;;;;;8.03;57.23;99235.44;5050041;28;20370;-75
2022/05/10 02:52:28;;;;;;;14.25;6.90;;;;;;;8.02;56.89;99241.97;5049475;28;20036;-75
2022/05/10 02:55:05;;;;;;;11.75;7.07;;;;;;;8.04;57.13;99241.72;5048074;28;20040;-75
2022/05/10 02:57:30;;;;;;;12.80;7.60;;;;;;;8.05;57.35;99238.72;5048515;28;20089;-75
2022/05/10 02:59:59;;;;;;;13.57;6.90;;;;;;;8.05;57.31;99246.09;5048985;28;20477;-75
2022/05/10 03:02:31;;;;;;;17.38;7.35;;;;;;;8.05;56.99;99246.91;5050253;28;20408;-76
2022/05/10 03:04:58;;;;;;;11.68;6.90;;;;;;;8.04;57.13;99245.25;5048165;28;20047;-75
2022/05/10 03:07:25;;;;;;;11.75;6.43;;;;;;;8.05;57.09;99241.44;5050290;28;20037;-75
2022/05/10 03:09:51;;;;;;;11.52;6.55;;;;;;;8.06;57.28;99236.81;5049921;28;20429;-75
2022/05/10 03:12:16;;;;;;;12.77;6.80;;;;;;;8.05;57.10;99236.00;5049041;28;20089;-75
2022/05/10 03:14:42;;;;;;;13.70;7.03;;;;;;;8.05;56.78;99229.72;5047257;28;20048;-75
2022/05/10 03:17:10;;;;;;;13.38;5.80;;;;;;;8.04;57.35;99239.81;5049606;28;20131;-75
2022/05/10 03:19:36;;;;;;;12.77;5.85;;;;;;;8.06;57.53;99242.28;5048853;28;20149;-75
2022/05/10 03:22:02;;;;;;;11.30;6.40;;;;;;;8.08;56.80;99242.00;5050321;28;20021;-75
2022/05/10 03:24:27;;;;;;;13.52;5.75;;;;;;;8.09;57.10;99236.31;5048274;28;20036;-75
2022/05/10 03:26:53;;;;;;;13.52;5.45;;;;;;;8.11;57.17;99238.75;5048160;28;20036;-75
2022/05/10 03:29:20;;;;;;;8.65;4.75;;;;;;;8.12;57.05;99226.75;5049265;28;20056;-75
2022/05/10 03:31:45;;;;;;;9.30;5.00;;;;;;;8.14;57.28;99232.78;5050092;28;20036;-75
2022/05/10 03:36:56;;;;;;;7.93;4.28;;;;;;;8.19;57.05;99230.91;5048932;28;20121;-75
2022/05/10 03:39:21;;;;;;;6.13;3.30;;;;;;;8.23;56.68;99236.69;5049685;28;20115;-76
2022/05/10 03:41:47;;;;;;;6.75;3.50;;;;;;;8.26;56.76;99229.88;5049035;28;20032;-76
2022/05/10 03:44:13;;;;;;;6.82;3.28;;;;;;;8.27;56.61;99234.25;5048689;28;20058;-75
2022/05/10 03:46:38;;;;;;;5.90;3.10;;;;;;;8.29;56.60;99230.19;5047154;28;20557;-75
2022/05/10 03:49:04;;;;;;;7.03;3.50;;;;;;;8.36;56.65;99229.94;5050203;28;20041;-75
2022/05/10 03:51:30;;;;;;;5.82;2.90;;;;;;;8.43;56.63;99229.69;5050271;28;20382;-75
2022/05/10 03:53:57;;;;;;;6.53;3.20;;;;;;;8.52;56.88;99227.34;5046679;28;20041;-75
2022/05/10 03:56:23;;;;;;;7.63;3.10;;;;;;;8.58;56.87;99229.84;5049558;28;20033;-76
2022/05/10 03:58:50;;;;;;;7.72;3.40;;;;;;;8.66;56.23;99233.19;5050015;28;20112;-75
2022/05/10 04:01:18;;;;;;;6.03;3.00;;;;;;;8.71;56.14;99225.00;5049001;28;20385;-75
2022/05/10 04:03:44;;;;;;;5.00;2.90;;;;;;;8.77;56.50;99229.38;5047940;28;20033;-76
2022/05/10 04:06:10;;;;;;;6.07;3.05;;;;;;;8.81;56.17;99222.31;5050492;28;20385;-75
2022/05/10 04:08:36;;;;;;;6.70;3.10;;;;;;;8.89;56.00;99221.00;5048579;28;20087;-76
2022/05/10 04:11:07;;;;;;;6.32;2.80;;;;;;;8.94;56.38;99226.50;5046960;28;20136;-72
2022/05/10 04:13:33;;;;;;;5.95;3.55;;;;;;;8.97;56.09;99223.19;5047739;28;20081;-74
2022/05/10 04:15:59;;;;;;;5.25;3.13;;;;;;;9.01;56.28;99218.84;5048625;28;20040;-74
2022/05/10 04:18:25;;;;;;;6.90;3.40;;;;;;;9.07;55.90;99223.25;5049250;28;20561;-74
2022/05/10 04:20:50;;;;;;;8.02;2.90;;;;;;;9.10;55.89;99216.44;5046316;28;20025;-74
2022/05/10 04:23:16;;;;;;;5.93;2.97;;;;;;;9.17;55.84;99216.97;5050675;28;20029;-74
2022/05/10 04:25:42;;;;;;;6.78;3.13;;;;;;;9.26;55.88;99224.69;5049426;28;20029;-74
2022/05/10 04:28:08;;;;;;;5.75;3.08;;;;;;;9.33;56.05;99226.09;5048536;28;20036;-74
2022/05/10 04:30:33;;;;;;;6.88;2.85;;;;;;;9.37;55.78;99216.22;5049762;28;20132;-74
2022/05/10 04:32:58;;;;;;;6.63;3.15;;;;;;;9.41;55.63;99216.53;5050409;28;20075;-75
2022/05/10 04:35:24;;;;;;;7.95;3.80;;;;;;;9.47;55.56;99214.59;5049798;28;20124;-75
2022/05/10 04:37:49;;;;;;;6.65;3.55;;;;;;;9.52;55.52;99217.38;5050729;28;20029;-74
2022/05/10 04:42:59;;;;;;;7.10;3.25;;;;;;;9.66;55.60;99220.41;5047821;28;20040;-75
2022/05/10 04:45:24;;;;;;;7.97;3.47;;;;;;;9.72;55.17;99216.56;5047047;28;20436;-74
2022/05/10 04:47:49;;;;;;;7.30;3.63;;;;;;;9.77;55.52;99221.25;5048827;28;20029;-74
2022/05/10 04:50:15;;;;;;;8.13;3.83;;;;;;;9.85;55.37;99230.84;5046849;28;20051;-74
2022/05/10 04:52:42;;;;;;;9.80;4.30;;;;;;;9.91;55.33;99229.75;5049270;28;20104;-75
2022/05/10 04:55:09;;;;;;;9.77;3.90;;;;;;;9.99;55.90;99223.72;5048113;28;20037;-74
2022/05/10 04:57:36;;;;;;;8.15;4.10;;;;;;;10.05;55.04;99233.59;5049172;28;20493;-74
2022/05/10 05:00:03;;;;;;;7.22;3.67;;;;;;;10.09;54.96;99223.72;5048113;28;20048;-75
2022/05/10 05:02:28;;;;;;;7.28;4.20;;;;;;;10.15;55.12;99226.47;5049004;28;20033;-75
2022/05/10 05:04:53;;;;;;;6.68;4.13;;;;;;;10.22;54.67;99227.03;5049315;28;20036;-74
2022/05/10 05:07:19;;;;;;;7.78;4.20;;;;;;;10.28;55.56;99229.47;5050058;28;20025;-74
2022/05/10 05:09:44;;;;;;;8.25;3.70;;;;;;;10.38;54.75;99233.31;5050913;28;20103;-74
2022/05/10 05:12:11;;;;;;;6.13;3.90;;;;;;;10.45;55.30;99233.03;5049867;28;20021;-75
2022/05/10 05:14:37;;;;;;;7.85;4.50;;;;;;;10.55;54.95;99228.38;5050937;28;20025;-75
2022/05/10 05:17:03;;;;;;;8.80;4.40;;;;;;;10.64;55.43;99233.28;5049111;28;20035;-75
2022/05/10 05:19:28;;;;;;;7.72;4.30;;;;;;;10.74;55.20;99233.28;5049910;28;20021;-76
2022/05/10 05:21:54;;;;;;;9.00;4.28;;;;;;;10.80;55.22;99229.41;5049518;28;20509;-75
2022/05/10 05:24:19;;;;;;;6.90;3.97;;;;;;;10.89;54.91;99231.59;5049069;28;20035;-76
2022/05/10 05:26:46;;;;;;;8.73;4.13;;;;;;;10.95;54.60;99233.22;5049537;28;20108;-75
2022/05/10 05:29:12;;;;;;;9.27;4.25;;;;;;;11.00;54.65;99234.03;5046859;28;20039;-74
2022/05/10 05:31:38;;;;;;;7.20;3.53;;;;;;;11.09;54.18;99231.50;5050406;28;20444;-73
2022/05/10 05:34:03;;;;;;;7.68;4.10;;;;;;;11.18;54.11;99229.03;5056011;28;20025;-73
2022/05/10 05:36:29;;;;;;;8.20;4.35;;;;;;;11.27;54.13;99241.03;5050654;28;20378;-73
2022/05/10 05:38:54;;;;;;;7.65;4.28;;;;;;;11.33;54.42;99236.38;5051766;28;20036;-73
2022/05/10 05:41:20;;;;;;;9.85;4.53;;;;;;;11.41;54.21;99245.94;5053410;28;20100;-73
2022/05/10 05:43:45;;;;;;;8.70;4.07;;;;;;;11.46;54.44;99235.72;5053988;28;20036;-73
2022/05/10 05:46:11;;;;;;;10.15;4.28;;;;;;;11.55;54.01;99227.72;5053498;28;20505;-73
2022/05/10 05:48:37;;;;;;;8.45;4.45;;;;;;;11.69;54.10;99229.81;5051112;28;20025;-73
2022/05/10 05:51:03;;;;;;;8.82;4.05;;;;;;;11.75;54.09;99225.94;5047887;28;20059;-73
2022/05/10 05:53:28;;;;;;;8.00;4.15;;;;;;;11.85;54.01;99233.28;5050490;28;20473;-72
2022/05/10 05:56:03;;;;;;;8.13;4.25;;;;;;;11.97;54.31;99232.94;5050973;28;20068;-73
2022/05/10 05:58:29;;;;;;;8.18;4.72;;;;;;;12.05;53.62;99232.34;5050003;28;20568;-73
2022/05/10 06:00:54;;;;;;;11.13;4.30;;;;;;;12.10;53.32;99232.31;5049627;28;20126;-73
2022/05/10 06:03:20;;;;;;;8.40;4.30;;;;;;;12.16;53.99;99235.84;5051365;28;20068;-72
2022/05/10 06:05:45;;;;;;;7.60;4.45;;;;;;;12.26;53.14;99237.69;5050794;28;20036;-73
2022/05/10 06:08:11;;;;;;;9.48;4.70;;;;;;;12.31;53.47;99238.47;5051473;28;20466;-72
2022/05/10 06:10:37;;;;;;;7.43;4.25;;;;;;;12.39;52.88;99238.94;5051078;28;20028;-73
2022/05/10 06:13:03;;;;;;;9.25;4.65;;;;;;;12.44;53.26;99238.91;5050493;28;20033;-72
2022/05/10 06:15:29;;;;;;;8.43;4.45;;;;;;;12.50;53.09;99230.31;5050747;28;20032;-73
2022/05/10 06:17:56;;;;;;;9.38;4.65;;;;;;;12.60;53.35;99234.06;5050844;28;20033;-72
2022/05/10 06:20:24;;;;;;;8.63;4.35;;;;;;;12.65;53.36;99229.31;5050795;28;20029;-73
2022/05/10 06:22:50;;;;;;;8.48;4.50;;;;;;;12.72;52.89;99231.75;5050278;28;20037;-73
2022/05/10 06:25:19;;;;;;;9.77;4.40;;;;;;;12.79;53.01;99226.72;5050054;28;20021;-72
2022/05/10 06:27:50;;;;;;;7.93;4.10;;;;;;;12.88;52.47;99224.16;5050473;28;20467;-72
2022/05/10 06:30:15;;;;;;;6.45;4.25;;;;;;;13.00;52.83;99225.69;5049741;28;20021;-71
2022/05/10 06:32:41;;;;;;;9.10;4.20;;;;;;;13.09;52.67;99227.47;5050773;28;20027;-72
2022/05/10 06:35:08;;;;;;;8.60;3.97;;;;;;;13.17;52.63;99220.50;5050847;28;20028;-72
2022/05/10 06:40:18;;;;;;;8.85;4.53;;;;;;;13.38;52.70;99221.03;5051664;28;20035;-72
2022/05/10 06:42:43;;;;;;;6.38;4.28;;;;;;;13.50;52.66;99223.38;5051807;28;20035;-71
2022/05/10 06:45:13;;;;;;;10.18;4.40;;;;;;;13.60;52.65;99225.19;5050415;28;20405;-71
2022/05/10 06:47:41;;;;;;;9.70;4.00;;;;;;;13.65;52.23;99214.06;5048975;28;20112;-72
2022/05/10 06:50:10;;;;;;;7.05;3.63;;;;;;;13.76;52.50;99216.69;5050212;28;20483;-72
2022/05/10 06:52:35;;;;;;;9.20;4.80;;;;;;;13.89;52.28;99218.69;5050860;28;20021;-72
2022/05/10 06:55:01;;;;;;;8.40;3.83;;;;;;;13.97;52.13;99220.78;5050702;28;20039;-72
2022/05/10 06:57:26;;;;;;;9.07;4.18;;;;;;;14.06;52.18;99218.16;5051182;28;20029;-73
2022/05/10 06:59:53;;;;;;;8.40;4.28;;;;;;;14.17;52.08;99218.78;5052330;28;20366;-73
2022/05/10 07:02:18;;;;;;;7.30;3.85;;;;;;;14.27;52.07;99213.09;5051480;28;20025;-73
2022/05/10 07:04:44;;;;;;;6.95;4.15;;;;;;;14.37;51.18;99214.06;5050594;28;20591;-71
2022/05/10 07:07:09;;;;;;;9.00;4.20;;;;;;;14.43;51.53;99215.59;5052011;28;20025;-74
2022/05/10 07:09:35;;;;;;;5.72;3.90;;;;;;;14.49;51.39;99214.38;5052903;28;20025;-73
2022/05/10 07:12:00;;;;;;;9.30;4.43;;;;;;;14.64;51.48;99213.28;5050299;28;20044;-76
2022/05/10 07:14:26;;;;;;;7.32;3.90;;;;;;;14.81;51.48;99214.66;5045817;28;20028;-74
2022/05/10 07:16:51;;;;;;;7.85;4.05;;;;;;;14.93;51.80;99212.22;5045323;28;20029;-72
2022/05/10 07:19:17;;;;;;;8.68;3.70;;;;;;;15.05;51.25;99219.19;5048547;28;20364;-74
2022/05/10 07:21:43;;;;;;;6.88;3.83;;;;;;;15.09;51.24;99212.72;5050687;28;20486;-75
2022/05/10 07:24:08;;;;;;;8.68;4.45;;;;;;;15.16;50.76;99215.88;5049762;28;20064;-75
2022/05/10 07:26:34;;;;;;;8.07;3.95;;;;;;;15.26;50.81;99214.03;5049592;28;20064;-76
2022/05/10 07:28:59;;;;;;;7.43;3.95;;;;;;;15.36;50.81;99211.03;5048483;28;20033;-73
2022/05/10 07:31:25;;;;;;;12.02;4.28;;;;;;;15.43;50.88;99213.41;5048599;28;20025;-73
2022/05/10 07:33:50;;;;;;;6.70;3.92;;;;;;;15.53;50.13;99209.59;5054092;28;20052;-72
2022/05/10 07:36:25;;;;;;;7.18;3.78;;;;;;;15.58;50.74;99203.94;5049116;28;20078;-73
2022/05/10 07:38:51;;;;;;;6.55;3.63;;;;;;;15.64;50.54;99208.22;5046202;28;20025;-70
2022/05/10 07:41:21;;;;;;;7.65;3.42;;;;;;;15.71;50.22;99205.81;5049209;28;20234;-72
2022/05/10 07:43:47;;;;;;;6.60;3.28;;;;;;;15.83;50.73;99207.22;5048031;28;20135;-74
2022/05/10 07:46:12;;;;;;;9.75;3.50;;;;;;;15.90;50.08;99202.91;5050524;28;20036;-73
2022/05/10 07:48:38;;;;;;;6.85;3.65;;;;;;;16.01;50.03;99205.44;5050062;28;20386;-73
2022/05/10 07:51:03;;;;;;;7.00;3.53;;;;;;;16.17;50.34;99203.94;5050769;28;20052;-75
2022/05/10 07:53:31;;;;;;;8.93;3.80;;;;;;;16.31;50.09;99194.72;5049437;28;20445;-75
2022/05/10 07:55:57;;;;;;;7.13;3.38;;;;;;;16.49;50.02;99203.97;5048041;28;20029;-74
2022/05/10 07:58:23;;;;;;;6.13;3.05;;;;;;;16.64;49.67;99205.50;5048925;28;20053;-77
2022/05/10 08:00:49;;;;;;;8.88;3.40;;;;;;;16.74;49.47;99205.22;5048548;28;20067;-74
2022/05/10 08:03:20;;;;;;;5.75;3.55;;;;;;;16.83;49.46;99202.50;5048869;28;20041;-75
2022/05/10 08:05:46;;;;;;;6.88;3.75;;;;;;;16.90;49.03;99202.03;5047737;28;20040;-77
2022/05/10 08:08:13;;;;;;;6.57;4.22;;;;;;;16.98;48.80;99192.97;5050571;28;20489;-74
2022/05/10 08:10:42;;;;;;;7.45;3.45;;;;;;;17.06;48.85;99199.66;5048917;28;20017;-73
2022/05/10 08:13:17;;;;;;;9.52;3.97;;;;;;;17.16;49.00;99201.31;5048557;28;20059;-74
2022/05/10 08:15:42;;;;;;;6.40;3.88;;;;;;;17.22;48.53;99198.09;5050371;28;20071;-75
2022/05/10 08:18:08;;;;;;;7.35;3.45;;;;;;;17.29;48.25;99197.59;5048957;28;20075;-74
2022/05/10 08:20:34;;;;;;;9.55;3.83;;;;;;;17.38;48.46;99195.66;5050190;28;20096;-75
2022/05/10 08:23:00;;;;;;;7.30;3.45;;;;;;;17.51;48.09;99188.34;5050021;28;20159;-74
2022/05/10 08:25:25;;;;;;;6.63;3.50;;;;;;;17.67;48.25;99185.91;5048490;28;20025;-75
2022/05/10 08:27:51;;;;;;;9.82;3.60;;;;;;;17.79;47.58;99193.56;5049730;28;20477;-73
2022/05/10 08:30:17;;;;;;;6.95;3.17;;;;;;;17.90;47.67;99198.78;5050246;28;20041;-73
2022/05/10 08:32:42;;;;;;;7.25;3.20;;;;;;;17.97;47.07;99185.22;5049432;28;20025;-73
2022/05/10 08:35:10;;;;;;;5.57;3.30;;;;;;;18.09;46.71;99181.81;5048472;28;20041;-74
2022/05/10 08:37:38;;;;;;;8.35;3.53;;;;;;;18.10;45.16;99184.28;5049315;28;20076;-73
2022/05/10 08:40:17;;;;;;;5.93;3.13;;;;;;;18.09;44.74;99179.03;5052347;28;20032;-73
2022/05/10 08:42:48;;;;;;;5.28;3.33;;;;;;;18.21;45.61;99181.97;5049701;28;20024;-76
2022/05/10 08:45:14;;;;;;;6.05;2.97;;;;;;;18.29;43.89;99178.38;5049736;28;20045;-77
2022/05/10 08:47:42;;;;;;;6.78;3.10;;;;;;;18.25;44.04;99165.44;5048946;28;20041;-77
2022/05/10 08:50:11;;;;;;;6.07;3.53;;;;;;;18.34;44.87;99177.34;5049648;28;20037;-80
2022/05/10 08:52:43;;;;;;;5.13;3.50;;;;;;;18.54;45.93;99172.25;5049549;28;20033;-79
2022/05/10 08:55:10;;;;;;;7.65;3.78;;;;;;;18.63;44.48;99172.22;5049159;28;20485;-78
2022/05/10 08:57:35;;;;;;;5.38;3.35;;;;;;;18.67;43.98;99171.19;5052739;28;20077;-77
2022/05/10 09:00:12;;;;;;;5.35;3.72;;;;;;;18.82;43.63;99166.25;5050000;28;20732;-79
2022/05/10 09:02:42;;;;;;;4.88;3.10;;;;;;;18.97;43.82;99167.66;5049115;28;20066;-78
2022/05/10 09:05:20;;;;;;;8.07;3.28;;;;;;;19.12;43.88;99174.59;5046472;28;20033;-78
2022/05/10 09:08:06;;;;;;;6.43;3.53;;;;;;;19.16;41.79;99162.47;5046430;28;20037;-79
2022/05/10 09:10:38;;;;;;;6.82;3.17;;;;;;;19.12;42.10;99160.69;5046253;28;20056;-79
2022/05/10 09:13:15;;;;;;;8.88;3.78;;;;;;;19.13;40.91;99160.38;5048788;28;20049;-79
2022/05/10 09:15:55;;;;;;;6.13;2.80;;;;;;;19.01;41.24;99155.53;5054870;28;20083;-79
2022/05/10 09:18:39;;;;;;;6.05;2.75;;;;;;;19.07;41.81;99150.59;5052827;28;20397;-79
2022/05/10 09:21:11;;;;;;;7.88;3.00;;;;;;;19.27;41.38;99150.97;5049733;28;20168;-79
2022/05/10 09:24:08;;;;;;;5.97;2.75;;;;;;;19.39;41.86;99155.78;5051765;28;20040;-78
2022/05/10 09:26:42;;;;;;;4.75;2.95;;;;;;;19.47;40.26;99150.16;5041992;28;20064;-79
2022/05/10 09:29:20;;;;;;;6.53;2.60;;;;;;;19.47;41.12;99152.13;5052375;28;20104;-79
2022/05/10 09:34:48;;;;;;;3.90;2.88;;;;;;;19.38;39.63;99141.06;5053798;28;20044;-77
2022/05/10 09:37:24;;;;;;;5.55;2.83;;;;;;;19.54;40.35;99140.47;5051126;28;20041;-79
2022/05/10 09:39:56;;;;;;;7.53;2.60;;;;;;;19.64;39.93;99126.94;5053642;28;20401;-77
2022/05/10 09:42:31;;;;;;;5.22;2.83;;;;;;;19.68;35.69;99129.84;5053570;28;20033;-79
2022/05/10 09:45:16;;;;;;;4.28;2.80;;;;;;;19.61;36.55;99124.00;5053704;28;20473;-77
2022/05/10 09:47:55;;;;;;;5.60;2.60;;;;;;;19.71;38.50;99128.38;5053505;28;20524;-78
2022/05/10 09:50:28;;;;;;;6.45;2.70;;;;;;;19.86;39.21;99127.72;5053153;28;20051;-78
2022/05/10 09:53:06;;;;;;;9.20;3.05;;;;;;;20.04;39.24;99124.81;5046990;28;20667;-74
2022/05/10 09:55:32;;;;;;;6.50;2.78;;;;;;;20.08;38.00;99120.19;5050842;28;20188;-75
2022/05/10 09:58:15;;;;;;;4.63;2.47;;;;;;;20.03;37.40;99107.28;5050821;28;20031;-77
2022/05/10 10:00:53;;;;;;;4.50;2.70;;;;;;;20.03;37.81;99107.28;5052230;28;20052;-78
2022/05/10 10:03:32;;;;;;;4.15;2.60;;;;;;;20.16;37.89;99105.34;5051903;28;20017;-79
2022/05/10 10:06:22;;;;;;;5.03;2.97;;;;;;;20.40;39.11;99100.13;5051672;28;20056;-78
2022/05/10 10:08:50;;;;;;;4.63;2.42;;;;;;;20.53;38.60;99099.81;5045945;28;20043;-78
2022/05/10 10:11:32;;;;;;;6.43;2.85;;;;;;;20.64;38.65;99102.94;5052122;28;20024;-78
2022/05/10 10:13:59;;;;;;;21.38;3.20;;;;;;;20.74;38.38;99096.09;5051823;28;20040;-78
2022/05/10 10:16:31;;;;;;;6.22;2.80;;;;;;;20.81;37.58;99089.94;5044556;28;20033;-77
2022/05/10 10:19:11;;;;;;;5.75;2.80;;;;;;;21.00;38.09;99085.75;5050131;28;20533;-78
2022/05/10 10:21:52;;;;;;;4.28;2.63;;;;;;;21.19;37.38;99088.75;5050357;28;20049;-78
2022/05/10 10:24:47;;;;;;;4.72;2.60;;;;;;;21.31;38.16;99082.31;5051748;28;20037;-78
2022/05/10 10:27:22;;;;;;;4.68;2.78;;;;;;;21.37;37.89;99075.34;5046809;28;20397;-78
2022/05/10 10:29:54;;;;;;;4.63;3.00;;;;;;;21.35;37.06;99069.28;5051690;28;20027;-78
2022/05/10 10:33:04;;;;;;;4.30;2.90;;;;;;;21.29;36.04;99073.50;5052031;28;20029;-78
2022/05/10 10:35:47;;;;;;;5.10;3.05;;;;;;;21.20;35.71;99072.81;5036053;28;20048;-78
2022/05/10 10:38:29;;;;;;;3.75;2.60;;;;;;;21.24;36.46;99062.59;5051757;28;20029;-78
2022/05/10 10:41:03;;;;;;;4.80;2.60;;;;;;;21.22;35.73;99059.34;5053965;28;20878;-77
2022/05/10 10:43:38;;;;;;;4.82;3.08;;;;;;;21.23;36.23;99052.59;5052631;28;20029;-77
2022/05/10 10:46:24;;;;;;;8.02;3.33;;;;;;;21.32;35.50;99052.44;5048706;28;20501;-76
2022/05/10 10:49:03;;;;;;;5.72;2.75;;;;;;;21.38;36.73;99049.06;5050468;28;20037;-76
2022/05/10 10:51:32;;;;;;;5.10;2.95;;;;;;;21.51;37.72;99049.00;5050035;28;20048;-76
2022/05/10 10:54:00;;;;;;;4.28;2.80;;;;;;;21.69;36.96;99041.97;5051267;28;20063;-73
2022/05/10 10:57:03;;;;;;;5.65;3.35;;;;;;;21.89;36.67;99041.28;5051900;28;20069;-76
2022/05/10 10:59:34;;;;;;;4.53;2.67;;;;;;;21.98;36.71;99045.50;5051226;28;20033;-76
2022/05/10 11:02:21;;;;;;;5.68;2.65;;;;;;;22.07;36.22;99034.16;5049912;28;20053;-77
2022/05/10 11:05:00;;;;;;;10.13;4.95;;;;;;;22.23;36.67;99036.94;5048515;28;20055;-75
2022/05/10 11:07:54;;;;;;;6.97;4.07;;;;;;;22.21;32.29;99028.13;5047615;28;20489;-78
2022/05/10 11:10:26;;;;;;;9.07;3.22;;;;;;;22.02;31.82;99017.66;5049192;28;20078;-73
2022/05/10 11:13:04;;;;;;;4.80;3.17;;;;;;;21.89;31.90;99018.94;5049284;28;20052;-75
2022/05/10 11:15:41;;;;;;;5.78;2.60;;;;;;;21.93;33.18;99023.44;5051500;28;20033;-77
2022/05/10 11:18:20;;;;;;;3.97;2.70;;;;;;;22.06;34.15;99018.56;5049502;28;20090;-76
2022/05/10 11:21:24;;;;;;;3.78;2.50;;;;;;;22.18;33.53;99023.28;5048511;28;20074;-76
2022/05/10 11:24:02;;;;;;;7.05;4.32;;;;;;;22.22;33.87;99010.19;5049301;28;20037;-77
2022/05/10 11:26:43;;;;;;;5.50;3.30;;;;;;;22.34;34.51;99002.88;5048601;28;20044;-76
2022/05/10 11:29:47;;;;;;;4.40;2.88;;;;;;;22.43;34.35;99009.09;5048327;28;20051;-78
2022/05/10 11:32:47;;;;;;;4.57;2.80;;;;;;;22.42;34.73;99001.88;5008279;28;20054;-78
2022/05/10 11:35:28;;;;;;;7.25;3.42;;;;;;;22.21;33.92;99005.78;5034585;28;20451;-79
2022/05/10 11:38:28;;;;;;;4.80;2.88;;;;;;;22.04;33.65;98994.97;5050377;28;20029;-78
2022/05/10 11:41:31;;;;;;;8.48;3.30;;;;;;;21.85;33.54;98994.53;5045820;28;20025;-77
2022/05/10 11:44:24;;;;;;;22.00;7.80;;;;;;;21.83;34.38;98984.88;5049601;28;20045;-79
2022/05/10 11:46:57;;;;;;;5.40;3.22;;;;;;;21.91;33.58;98983.88;5049337;28;20078;-80
2022/05/10 11:49:31;;;;;;;6.75;3.33;;;;;;;22.01;34.60;98980.56;5050637;28;20063;-79
2022/05/10 11:52:19;;;;;;;7.43;3.55;;;;;;;22.06;35.00;98979.47;5049490;28;20531;-76
2022/05/10 11:55:16;;;;;;;6.88;3.17;;;;;;;22.08;34.17;98974.34;5047704;28;20063;-81
2022/05/10 11:57:43;;;;;;;14.40;5.97;;;;;;;22.18;34.96;98974.97;5047706;28;20041;-79
2022/05/10 12:00:27;;;;;;;6.28;3.20;;;;;;;22.38;34.85;98964.66;5049562;28;20025;-82
2022/05/10 12:03:00;;;;;;;4.47;2.88;;;;;;;22.45;33.85;98964.88;5051481;28;20040;-81
2022/05/10 12:05:31;;;;;;;6.63;3.33;;;;;;;22.53;34.19;98963.84;5048656;28;20032;-82
2022/05/10 12:08:01;;;;;;;5.93;3.38;;;;;;;22.69;33.88;98962.97;5048917;28;20021;-82
2022/05/10 12:10:36;;;;;;;5.85;2.92;;;;;;;22.91;34.71;98958.66;5052111;28;20033;-80